Regional Weather

 

KMKL - Jackson, TN, USA
Distance from station: WNW 50mi, 81km
Updated: Sat, Oct-21-2017 6:53pm CDT
Clear
Clear
 Wind from SSE
Wind: SSE 5 mph , 7 km/h
Temperature: 73°F , 23°C
Dew Point: 63°F , 17°C
Humidity: 69%
Barometer: 30.11 inHg , 1019.6 hPa
Clouds: Clear
Visibility: 10 miles , 16 km
2017/10/21 23:53 KMKL 212353Z AUTO 15004KT 10SM CLR 23/17 A3011 RMK AO2 SLP193 T02280172 10267 20228 53001
KMEM - Memphis, TN, USA
Distance from station: W 108mi, 173km
Updated: Sat, Oct-21-2017 6:54pm CDT
Mostly cloudy
Mostly cloudy
 Wind from SE
Wind: SE 10 mph , 17 km/h
Temperature: 75°F , 24°C
Dew Point: 63°F , 17°C
Humidity: 65%
Barometer: 30.06 inHg , 1017.9 hPa
Clouds: Mostly cloudy
Visibility: 10 miles , 16 km
Cloud details: Partly cloudy 15000 ft
Mostly cloudy 25000 ft
2017/10/21 23:54 KMEM 212354Z 14009KT 10SM SCT150 BKN250 24/17 A3006 RMK AO2 SLP175 T02440172 10278 20244 $
 
KBNA - Nashville, TN, USA
Distance from station: NE 97mi, 157km
Updated: Sat, Oct-21-2017 7:53pm CDT
Mostly cloudy
Mostly cloudy
 Wind from SSE
Wind: SSE 8 mph , 13 km/h
Temperature: 70°F , 21°C
Dew Point: 54°F , 12°C
Humidity: 57%
Barometer: 30.18 inHg , 1022 hPa
Clouds: Mostly cloudy
Visibility: 10 miles , 16 km
Cloud details: Few Clouds 22000 ft
Mostly cloudy 25000 ft
2017/10/22 00:53 KBNA 220053Z 16007KT 10SM FEW220 BKN250 21/12 A3018 RMK AO2 SLP217 T02110122
KCKV - Clarksville, TN, USA
Distance from station: NNE 99mi, 159km
Updated: Sat, Oct-21-2017 7:52pm CDT
Clear
Clear
 Wind from SE
Wind: SE 5 mph , 7 km/h
Temperature: 64°F , 18°C
Dew Point: 57°F , 14°C
Humidity: 78%
Barometer: 30.15 inHg , 1021 hPa
Clouds: Clear
Visibility: 10 miles , 16 km
2017/10/22 00:52 KCKV 220052Z AUTO 13004KT 10SM CLR 18/14 A3015 RMK AO2 SLP207 T01830139
 
KPAH - Paducah, KY, USA
Distance from station: NNW 128mi, 205km
Updated: Sat, Oct-21-2017 7:53pm CDT
Clear
Clear
 Wind from SE
Wind: SE 9 mph , 15 km/h
Temperature: 72°F , 22°C
Dew Point: 57°F , 14°C
Humidity: 61%
Barometer: 30.07 inHg , 1018.3 hPa
Clouds: Clear
Visibility: 10 miles , 16 km
2017/10/22 00:53 KPAH 220053Z 14008KT 10SM CLR 22/14 A3007 RMK AO2 PK WND 15030/2355 SLP181 T02170139
KCHA - Chattanooga, TN, USA
Distance from station: E 165mi, 265km
Updated: Sat, Oct-21-2017 7:53pm CDT
Partly cloudy
Partly cloudy
 Wind from calm
Wind: Calm
Temperature: 63°F , 17°C
Dew Point: 52°F , 11°C
Humidity: 68%
Barometer: 30.25 inHg , 1024.4 hPa
Clouds: Partly cloudy
Visibility: 10 miles , 16 km
Cloud details: Partly cloudy 25000 ft
2017/10/22 00:53 KCHA 220053Z 00000KT 10SM SCT250 17/11 A3025 RMK AO2 SLP240 T01670111 $
 
KTYS - Knoxville, TN, USA
Distance from station: E 234mi, 377km
Updated: Sat, Oct-21-2017 7:53pm CDT
Mostly cloudy
Mostly cloudy
 Wind from calm
Wind: Calm
Temperature: 64°F , 18°C
Dew Point: 57°F , 14°C
Humidity: 78%
Barometer: 30.24 inHg , 1024 hPa
Clouds: Mostly cloudy
Visibility: 10 miles , 16 km
Cloud details: Mostly cloudy 25000 ft
2017/10/22 00:53 KTYS 220053Z 00000KT 10SM BKN250 18/14 A3024 RMK AO2 SLP235 T01780139 $
KLIT - Little Rock, AR, USA
Distance from station: W 240mi, 386km
Updated: Sat, Oct-21-2017 7:53pm CDT
Overcast
Overcast
 Wind from ESE
Wind: ESE 6 mph , 9 km/h
Temperature: 73°F , 23°C
Dew Point: 70°F , 21°C
Humidity: 89%
Barometer: 30.00 inHg , 1015.9 hPa
Clouds: Overcast
Visibility: 10 miles , 16 km
Cloud details: Mostly cloudy 4000 ft
Overcast 5500 ft
2017/10/22 00:53 KLIT 220053Z 12005KT 10SM BKN040 OVC055 23/21 A3000 RMK AO2 SLP157 BINOVC T02330211 $

Refresh Page for latest data.